Anson, ME

3:16 PM EDT on April 27, 2015 (GMT -0400)
Greenville | | Change Station
CLOSE
Current Station
Airport
Location: Greenville,
Elevation: 1401 ft
Nearby Weather Stations

Elev 1401 ft 45.46 °N, 69.60 °W | Updated 20 minutes ago

Overcast
Overcast
44 °F
Feels Like 36 °F
N
17
Wind Variable Wind from North
Gusts 29 mph

Today
High -- | Low -- °F
--% Chance of Precip.
Yesterday
High -- | Low -- °F
Precip. -- in
5:36 AM 7:39 PM
Waxing Gibbous, 67% visible
Pressure 29.55 in
Visibility -9999.0 miles
Clouds
Windchill 36 °F
Dew Point 41 °F
Humidity 89%
Rainfall 0.07 in
Snow Depth Not available.
UV Not available.
Pollen 8.00 out of 12
Air Quality Not available.
Flu Activity Regional
METAR KGNR 271856Z AUTO 36015G25KT 07/05 A2951 RMK AO1 PK WND 36027/1832 SLP004 T00670050

More Conditions Fewer Conditions

Pressure 29.55 in
Visibility -9999.0 miles
Clouds
Windchill 36 °F
Dew Point 41 °F
Humidity 89%
Rainfall 0.07 in
Snow Depth Not available.
UV Not available.
Pollen 8.00 out of 12
Air Quality Not available.
Flu Activity Regional
METAR KGNR 271856Z AUTO 36015G25KT 07/05 A2951 RMK AO1 PK WND 36027/1832 SLP004 T00670050

More Conditions Fewer Conditions

10-Day Weather Forecast

Almanac

Astronomy

Apr. 27, 2015 Rise Set
Actual Time
Civil Twilight
Nautical Twilight
Astronomical Twilight
Moon
Length of Visible Light
Length of Day
Tomorrow will be .
, % of the Moon is Illuminated

Today's Extremes

State Highs State Lows

Community

WunderPhotos

Upload Photos

1,817,409 photos uploaded!

WunderBlogs® & News

Nearby

Air Quality

  Air Quality AQ Index Pollutant
Not available.

Snow Depth

Station Depth Elevation

Earthquake Activity

City Distance Mag. Time & Date
Minimum magnitude displayed is 2.5.

Coastal Water Temperatures

Place Temperature

Stations

Nearby Weather Stations

Station Location Temp. Windchill Dew Point Humidity Wind Precip. Elev Updated Type